Impacts TAF Board INFO
FOR SITUATIONAL AWARENESS. NOT TO BE USED FOR FLIGHT PLANNING PURPOSES.
IDs:

KSEA - Seattle-Tacoma Intl, WA, US

Issued at 1720 UTC 22 Apr 2018
Updated at 2018 UTC 22 Apr 2018
Potential Impact None Slight Moderate High
Time1953Z 22/21Z 22/22Z 22/23Z 23/00Z 23/01Z 23/02Z 23/03Z 23/04Z 23/05Z 23/06Z 23/07Z 23/08Z 23/09Z>>
Type OBS PRVL PRVL PRVL PRVL PRVL PRVL PRVL PRVL PRVL PRVL PRVL PRVL PRVL
VIS 10 >6 >6 >6 >6 >6 >6 >6 >6 >6 >6 >6 >6 >6
CIG 33 -- -- -- -- -- -- -- -- -- -- -- -- --
Cover BKN SKC SKC SKC SKC SKC SKC SKC SKC SKC SKC SKC SKC SKC
FltCat VFR VFR VFR VFR VFR VFR VFR VFR VFR VFR VFR VFR VFR VFR
WX -- -- -- -- -- -- -- -- -- -- -- -- -- --
WDir 350 360 360 360 360 360 360 20 20 20 20 20 20 20
WSpd 10 10 10 10 10 10 10 7 7 7 7 7 7 7
WGst -- -- -- -- -- -- -- -- -- -- -- -- -- --

Raw TAF
KSEA 221720Z 2218/2324 36010KT P6SM SCT020
  TEMPO 2218/2220 BKN020
  FM222100 36010KT P6SM SKC
  FM230300 02007KT P6SM SKC
  FM232000 36012KT P6SM SKC


Raw METAR
KSEA 221953Z 35010KT 10SM FEW020 BKN033 BKN050 12/04 A3038 RMK AO2 SLP294 T01170039
KSEA 221853Z 36008KT 10SM BKN028 12/03 A3039 RMK AO2 SLP299 T01170033
KSEA 221753Z 36008KT 10SM BKN021 OVC028 10/04 A3040 RMK AO2 SLP303 T01000039 10106 20067 58002

METAR Board
Radar Display
Forecast Discussion

FOR SITUATIONAL AWARENESS. NOT TO BE USED FOR FLIGHT PLANNING PURPOSES.